Time;durP1;ratioP1;P1;durP2;ratioP2;P2;SDS_P1;SDS_P2;PMS_P1;PMS_P2;Temp;Humidity;BMP_temperature;BMP_pressure;BME280_temperature;BME280_humidity;BME280_pressure;Samples;Min_cycle;Max_cycle;Signal;HPM_P1;HPM_P2
2021/04/12 03:18:35;;;;;;;;;;;;;;;;;;;;;
2021/04/12 04:44:57;;;;;;;19.63;17.67;;;0.80;75.50;;;;;;5678067;22;20236;-89
2021/04/12 04:50:33;;;;;;;22.35;18.33;;;0.80;76.30;;;;;;5437295;22;20221;-88
2021/04/12 05:10:34;;;;;;;20.15;18.05;;;0.70;92.90;;;;;;5381894;22;20225;-87
2021/04/12 05:13:21;;;;;;;21.40;18.15;;;0.80;91.40;;;;;;5017565;28;20193;-88
2021/04/12 05:16:14;;;;;;;21.70;19.40;;;0.90;91.50;;;;;;5017166;28;20164;-87
2021/04/12 05:19:24;;;;;;;28.10;23.73;;;0.90;93.80;;;;;;5235641;22;20224;-87
2021/04/12 05:21:58;;;;;;;29.95;22.45;;;3.50;80.40;;;;;;5017425;28;20183;-88
2021/04/12 05:27:37;;;;;;;20.27;18.10;;;1.00;93.00;;;;;;5324066;22;20255;-89
2021/04/12 05:33:23;;;;;;;31.08;20.35;;;1.10;93.00;;;;;;4887982;26;20281;-89
2021/04/12 05:36:31;;;;;;;21.90;19.52;;;1.60;93.50;;;;;;4996725;28;20265;-89
2021/04/12 05:47:19;;;;;;;19.35;17.05;;;1.60;93.30;;;;;;5192352;22;20219;-91
2021/04/12 05:50:13;;;;;;;19.30;17.38;;;1.90;77.60;;;;;;5035206;28;20211;-89
2021/04/12 06:04:41;;;;;;;13.63;11.57;;;2.70;73.40;;;;;;5074516;28;20174;-90
2021/04/12 06:07:44;;;;;;;12.25;11.15;;;1.10;73.10;;;;;;5234877;22;20243;-90
2021/04/12 06:10:13;;;;;;;13.77;12.43;;;4.80;76.50;;;;;;5033686;28;20211;-89
2021/04/12 06:12:50;;;;;;;14.32;12.82;;;2.50;91.70;;;;;;5036116;28;20185;-88
2021/04/12 06:15:53;;;;;;;21.70;14.30;;;2.80;91.60;;;;;;5035254;28;20172;-90
2021/04/12 06:18:51;;;;;;;15.73;14.25;;;2.40;90.90;;;;;;5034544;28;20162;-91
2021/04/12 06:21:42;;;;;;;20.33;13.85;;;3.10;73.20;;;;;;5037032;28;20156;-91
2021/04/12 06:24:24;;;;;;;14.80;12.70;;;4.80;75.60;;;;;;5038134;28;20164;-90
2021/04/12 06:27:55;;;;;;;13.15;10.48;;;2.90;90.60;;;;;;5031566;28;20185;-90
2021/04/12 06:30:52;;;;;;;12.32;11.02;;;3.10;90.50;;;;;;5038439;28;20227;-91
2021/04/12 06:33:54;;;;;;;13.15;12.00;;;3.80;71.70;;;;;;5027127;28;20211;-88
2021/04/12 06:36:55;;;;;;;14.20;11.65;;;3.70;71.20;;;;;;5037501;28;20157;-91
2021/04/12 06:40:07;;;;;;;11.05;9.95;;;4.20;70.20;;;;;;5038255;28;20199;-90
2021/04/12 06:43:17;;;;;;;11.15;10.00;;;3.50;68.40;;;;;;5037609;28;20224;-91
2021/04/12 06:48:38;;;;;;;11.70;9.77;;;3.50;67.60;;;;;;4995923;28;20226;-90
2021/04/12 06:51:26;;;;;;;10.77;9.88;;;6.20;70.50;;;;;;4996820;28;20285;-92
2021/04/12 06:54:16;;;;;;;10.80;9.68;;;3.20;65.00;;;;;;4980598;28;20205;-91
2021/04/12 06:56:51;;;;;;;11.82;10.65;;;3.80;66.50;;;;;;4981879;28;20169;-89
2021/04/12 06:59:53;;;;;;;16.95;10.52;;;3.80;66.90;;;;;;4977351;28;20182;-86
2021/04/12 07:03:03;;;;;;;10.18;9.18;;;4.10;66.60;;;;;;4977482;28;20208;-87
2021/04/12 07:06:01;;;;;;;15.27;9.75;;;4.60;64.80;;;;;;4977408;28;20278;-84
2021/04/12 07:08:43;;;;;;;10.18;8.90;;;5.00;62.10;;;;;;4977439;28;20166;-85
2021/04/12 07:11:46;;;;;;;10.80;9.20;;;5.20;61.30;;;;;;4976787;28;20202;-86
2021/04/12 07:14:46;;;;;;;10.82;9.85;;;5.30;60.10;;;;;;4977418;28;20173;-86
2021/04/12 07:17:38;;;;;;;10.43;9.52;;;7.80;63.50;;;;;;4977456;28;20186;-86
2021/04/12 07:20:41;;;;;;;13.05;10.27;;;5.30;59.90;;;;;;4976173;28;20302;-86
2021/04/12 07:23:32;;;;;;;11.98;10.85;;;5.20;59.70;;;;;;4977753;28;20174;-84
2021/04/12 07:26:22;;;;;;;10.35;9.52;;;5.30;78.40;;;;;;4980433;28;20193;-89
2021/04/12 07:29:15;;;;;;;11.55;10.25;;;5.20;59.80;;;;;;4984436;28;20178;-89
2021/04/12 07:31:52;;;;;;;11.55;10.55;;;4.90;60.30;;;;;;4992914;28;20245;-89
2021/04/12 07:35:16;;;;;;;12.82;11.57;;;4.60;62.70;;;;;;4996691;28;20197;-88
2021/04/12 07:38:00;;;;;;;14.27;11.48;;;5.80;66.00;;;;;;4997440;28;20182;-91
2021/04/12 07:41:22;;;;;;;15.25;10.77;;;4.50;83.80;;;;;;4996926;28;20483;-90
2021/04/12 07:50:48;;;;;;;15.07;12.05;;;4.80;62.30;;;;;;4828694;26;20227;-87
2021/04/12 07:53:56;;;;;;;15.73;11.35;;;6.00;65.10;;;;;;5027431;28;20192;-88
2021/04/12 08:03:05;;;;;;;10.27;9.27;;;7.90;64.00;;;;;;5181073;22;20236;-90
2021/04/12 08:08:43;;;;;;;11.50;8.30;;;6.90;58.20;;;;;;5452561;22;20223;31
2021/04/12 08:17:24;;;;;;;5.32;5.00;;;8.90;54.60;;;;;;5085791;22;20357;-86
2021/04/12 08:20:30;;;;;;;6.23;5.00;;;10.20;51.70;;;;;;4995765;28;20184;-87
2021/04/12 08:23:33;;;;;;;6.73;6.37;;;10.80;49.70;;;;;;4995720;28;20408;-86
2021/04/12 08:26:16;;;;;;;5.83;5.43;;;10.60;49.60;;;;;;4995781;28;20786;-86
2021/04/12 08:29:19;;;;;;;6.27;5.67;;;10.70;49.30;;;;;;4994335;28;20443;-86
2021/04/12 08:32:20;;;;;;;5.90;5.40;;;10.80;48.90;;;;;;4996418;28;20431;-86
2021/04/12 08:35:07;;;;;;;6.67;6.27;;;10.80;48.80;;;;;;4995544;28;20427;-87
2021/04/12 08:37:36;;;;;;;7.57;6.97;;;11.30;48.40;;;;;;4995047;28;20420;-88
2021/04/12 08:40:30;;;;;;;7.90;7.20;;;11.10;47.60;;;;;;4995435;28;20185;-86
2021/04/12 08:42:56;;;;;;;8.03;7.37;;;10.70;47.60;;;;;;4993622;28;20177;-86
2021/04/12 08:45:59;;;;;;;6.23;5.80;;;10.30;47.80;;;;;;4995539;28;21000;-86
2021/04/12 08:49:37;;;;;;;7.07;6.41;;;8.80;56.40;;;;;;4971127;28;10000300;-88
2021/04/12 08:52:40;;;;;;;8.48;7.50;;;9.60;49.80;;;;;;4951901;29;20813;-87
2021/04/12 08:55:44;;;;;;;7.93;6.10;;;9.30;50.60;;;;;;4951980;29;20171;-87
2021/04/12 08:58:47;;;;;;;7.78;7.07;;;9.40;50.50;;;;;;4972741;28;20182;-88
2021/04/12 09:01:40;;;;;;;7.15;6.57;;;9.80;51.30;;;;;;4972911;28;20505;-88
2021/04/12 09:04:46;;;;;;;5.55;5.15;;;9.20;51.30;;;;;;4972971;28;20353;-89
2021/04/12 09:07:49;;;;;;;5.80;5.50;;;9.50;51.60;;;;;;4989265;28;20558;-87
2021/04/12 09:10:56;;;;;;;5.97;5.40;;;9.20;51.90;;;;;;4973984;28;20223;-88
2021/04/12 09:13:31;;;;;;;5.88;5.38;;;8.90;50.90;;;;;;4972704;28;20572;-87
2021/04/12 09:16:12;;;;;;;7.43;6.93;;;9.10;51.60;;;;;;4972525;28;20584;-87
2021/04/12 09:19:05;;;;;;;8.63;8.03;;;9.00;51.90;;;;;;4973932;28;20417;-85
2021/04/12 09:21:42;;;;;;;10.57;8.73;;;8.80;51.50;;;;;;4973531;28;20512;-85
2021/04/12 09:24:39;;;;;;;9.13;8.40;;;9.20;51.10;;;;;;4985186;28;20553;-86
2021/04/12 09:27:44;;;;;;;9.00;8.50;;;10.30;48.50;;;;;;4995811;28;20958;-86
2021/04/12 09:30:18;;;;;;;10.50;9.73;;;10.30;47.70;;;;;;4998905;28;20464;-86
2021/04/12 09:33:00;;;;;;;9.45;8.70;;;9.70;49.50;;;;;;4993041;28;20408;-87
2021/04/12 09:35:38;;;;;;;10.82;9.73;;;9.30;49.00;;;;;;4991284;28;20207;-87
2021/04/12 09:38:13;;;;;;;9.60;8.82;;;9.30;50.10;;;;;;4990545;28;20177;-87
2021/04/12 09:40:57;;;;;;;10.87;10.00;;;10.40;48.40;;;;;;4992239;28;20178;-87
2021/04/12 09:43:29;;;;;;;11.40;10.50;;;10.60;46.20;;;;;;4992414;28;20405;-87
2021/04/12 09:46:25;;;;;;;11.67;10.60;;;10.60;47.30;;;;;;4991023;28;20420;-89
2021/04/12 09:49:28;;;;;;;8.73;8.30;;;10.80;47.50;;;;;;4992459;28;20420;-88
2021/04/12 09:51:59;;;;;;;8.07;7.47;;;11.80;45.30;;;;;;4991825;28;20483;-88
2021/04/12 09:54:37;;;;;;;8.67;8.07;;;13.10;43.70;;;;;;4992449;28;20552;-89
2021/04/12 09:57:36;;;;;;;7.90;7.40;;;13.90;42.00;;;;;;4993909;28;20817;-89
2021/04/12 10:00:17;;;;;;;6.37;6.13;;;15.20;40.00;;;;;;5007327;28;20439;-87
2021/04/12 10:06:02;;;;;;;4.77;4.57;;;14.20;38.60;;;;;;4978501;28;20480;-84
2021/04/12 10:08:40;;;;;;;3.13;2.93;;;14.90;37.70;;;;;;4976606;28;20531;-89
2021/04/12 10:11:15;;;;;;;2.80;2.50;;;16.20;35.90;;;;;;4977058;28;20473;-88
2021/04/12 10:13:47;;;;;;;2.73;2.50;;;17.00;32.70;;;;;;4971011;28;20456;-90
2021/04/12 10:16:22;;;;;;;4.10;3.30;;;14.90;33.60;;;;;;4972007;28;20440;-89
2021/04/12 10:19:07;;;;;;;2.23;2.13;;;17.80;34.30;;;;;;4974220;28;20441;-87
2021/04/12 10:22:07;;;;;;;2.50;2.37;;;16.80;32.00;;;;;;4976298;28;20510;-92
2021/04/12 10:24:57;;;;;;;1.20;1.20;;;16.30;29.50;;;;;;4990789;28;20497;-88
2021/04/12 10:31:37;;;;;;;1.70;1.60;;;15.30;29.50;;;;;;4993109;28;20496;-89
2021/04/12 10:34:37;;;;;;;1.77;1.67;;;17.30;31.60;;;;;;4990090;28;20464;-92
2021/04/12 10:37:36;;;;;;;2.10;1.40;;;15.20;30.20;;;;;;4988941;28;20406;-90
2021/04/12 10:40:23;;;;;;;1.90;1.33;;;17.00;31.70;;;;;;4990248;28;20405;-87
2021/04/12 10:43:33;;;;;;;1.70;1.70;;;14.20;29.70;;;;;;4987352;28;20444;-90
2021/04/12 10:46:17;;;;;;;1.70;1.60;;;17.00;29.60;;;;;;4984102;28;20409;-90
2021/04/12 10:48:59;;;;;;;1.60;1.60;;;17.10;29.50;;;;;;4987192;28;20496;-92
2021/04/12 10:51:33;;;;;;;1.93;1.83;;;19.70;28.90;;;;;;4976890;28;20483;-89
2021/04/12 10:54:36;;;;;;;2.10;1.50;;;17.40;28.10;;;;;;4973226;28;20445;-88
2021/04/12 10:57:37;;;;;;;2.63;2.20;;;19.50;27.90;;;;;;4982102;28;20409;-89
2021/04/12 11:00:16;;;;;;;1.33;1.33;;;17.80;26.40;;;;;;4954210;28;20418;-88
2021/04/12 11:03:15;;;;;;;1.93;1.70;;;17.60;27.50;;;;;;4971274;28;20425;-86
2021/04/12 11:05:54;;;;;;;2.50;2.30;;;14.50;31.00;;;;;;4972975;28;20608;-86
2021/04/12 11:08:46;;;;;;;2.07;2.03;;;13.00;35.70;;;;;;4978682;28;20421;-89
2021/04/12 11:11:33;;;;;;;1.60;1.60;;;10.80;39.80;;;;;;4978326;28;20563;-87
2021/04/12 11:14:10;;;;;;;2.03;1.80;;;9.60;45.20;;;;;;4990606;28;20257;-85
2021/04/12 11:16:49;;;;;;;3.28;3.00;;;8.80;47.70;;;;;;4976208;28;20169;-88
2021/04/12 11:19:48;;;;;;;3.35;3.35;;;8.00;50.00;;;;;;4978202;28;20165;-86
2021/04/12 11:22:30;;;;;;;2.72;2.60;;;7.30;52.00;;;;;;4974489;28;20205;-89
2021/04/12 11:25:28;;;;;;;1.90;1.80;;;9.80;55.90;;;;;;4978587;28;20180;-84
2021/04/12 11:31:49;;;;;;;2.75;2.75;;;6.30;60.00;;;;;;4996659;28;20252;-89
2021/04/12 11:34:42;;;;;;;2.15;2.15;;;5.60;59.80;;;;;;5005516;28;20273;-89
2021/04/12 11:37:21;;;;;;;2.72;2.63;;;4.30;78.40;;;;;;4982049;28;20218;-88
2021/04/12 11:39:58;;;;;;;1.80;1.80;;;4.10;62.40;;;;;;4987287;28;20185;-89
2021/04/12 11:46:06;;;;;;;3.35;3.22;;;3.60;65.60;;;;;;4967599;28;20205;-87
2021/04/12 11:49:09;;;;;;;3.45;3.35;;;3.60;67.20;;;;;;4958821;29;20166;-86
2021/04/12 11:52:14;;;;;;;2.95;2.78;;;3.60;86.60;;;;;;4966122;28;20245;-87
2021/04/12 11:54:50;;;;;;;2.90;2.90;;;3.60;69.50;;;;;;4971813;29;20256;-85
2021/04/12 11:57:37;;;;;;;2.30;2.30;;;3.80;70.30;;;;;;4968287;28;20158;-87
2021/04/12 12:05:49;;;;;;;1.58;1.58;;;6.40;61.70;;;;;;5239064;22;20436;-88
2021/04/12 12:08:54;;;;;;;;;;;;;;;;;;;;;
2021/04/12 12:11:26;;;;;;;1.50;1.50;;;10.50;60.50;;;;;;5135615;22;20740;-92
2021/04/12 12:19:42;;;;;;;1.50;1.50;;;12.80;49.90;;;;;;4994629;28;20469;-89
2021/04/12 12:22:29;;;;;;;1.77;1.63;;;14.40;47.60;;;;;;4990649;28;20440;-90
2021/04/12 12:25:00;;;;;;;1.20;1.20;;;12.90;48.00;;;;;;4989800;28;20429;-89
2021/04/12 12:27:35;;;;;;;1.47;1.47;;;13.70;46.40;;;;;;4985718;28;20440;-88
2021/04/12 12:30:04;;;;;;;1.20;1.20;;;14.40;44.60;;;;;;4987372;28;20944;-92
2021/04/12 12:32:42;;;;;;;1.37;1.37;;;15.10;42.70;;;;;;4982002;28;20445;-89
2021/04/12 12:35:36;;;;;;;2.13;2.03;;;15.90;43.90;;;;;;4978563;28;20413;-89
2021/04/12 12:38:42;;;;;;;1.67;1.53;;;16.50;42.10;;;;;;4630238;28;9999668;-89
2021/04/12 12:41:18;;;;;;;2.13;2.13;;;16.20;41.20;;;;;;4950034;28;20590;-88
2021/04/12 12:43:47;;;;;;;2.47;2.27;;;16.40;41.10;;;;;;4954944;29;20465;-88
2021/04/12 12:46:27;;;;;;;2.47;2.27;;;16.60;39.90;;;;;;4955908;28;20428;-89
2021/04/12 12:49:01;;;;;;;2.63;2.53;;;16.20;37.00;;;;;;4957400;28;20395;-91
2021/04/12 12:51:33;;;;;;;2.50;2.40;;;15.40;39.20;;;;;;4956350;28;20516;-89
2021/04/12 12:54:24;;;;;;;2.33;2.33;;;18.00;40.20;;;;;;4956925;28;20442;-91
2021/04/12 12:56:51;;;;;;;2.43;2.43;;;16.50;35.00;;;;;;4958480;28;20429;-89
2021/04/12 12:59:42;;;;;;;2.90;2.80;;;16.10;34.50;;;;;;4961717;28;20410;-91
2021/04/12 13:02:30;;;;;;;2.93;2.93;;;18.10;37.60;;;;;;4961075;28;20422;-91
2021/04/12 13:05:06;;;;;;;2.80;2.60;;;16.10;37.40;;;;;;4965017;28;20438;-88
2021/04/12 13:07:33;;;;;;;3.00;2.90;;;15.90;35.10;;;;;;4966405;28;20437;-91
2021/04/12 13:10:15;;;;;;;3.53;3.40;;;16.20;37.30;;;;;;4963251;28;20525;-89
2021/04/12 13:12:43;;;;;;;4.10;3.97;;;13.60;40.30;;;;;;4961827;28;20437;-88
2021/04/12 13:15:08;;;;;;;3.30;3.30;;;13.50;42.40;;;;;;4961131;28;20482;-90
2021/04/12 13:17:37;;;;;;;4.67;4.57;;;11.90;44.00;;;;;;4961459;28;20505;-90
2021/04/12 13:20:30;;;;;;;4.10;3.90;;;12.60;45.20;;;;;;4943252;29;20182;-88
2021/04/12 13:23:12;;;;;;;4.13;4.00;;;10.60;44.60;;;;;;4958637;28;20450;-89
2021/04/12 13:25:44;;;;;;;4.00;3.90;;;10.00;45.10;;;;;;4959406;28;20414;-88
2021/04/12 13:28:33;;;;;;;3.95;3.85;;;8.10;48.00;;;;;;4960506;28;20980;-89
2021/04/12 13:31:17;;;;;;;3.45;3.30;;;7.80;50.60;;;;;;4960025;28;20206;-86
2021/04/12 13:33:54;;;;;;;3.53;3.38;;;10.90;53.30;;;;;;4968213;28;20599;-88
2021/04/12 13:36:43;;;;;;;3.97;3.78;;;8.20;55.60;;;;;;4970622;28;20190;-90
2021/04/12 13:39:24;;;;;;;3.75;3.53;;;6.10;72.80;;;;;;4973765;28;20210;-88
2021/04/12 13:41:51;;;;;;;4.38;4.15;;;5.60;59.40;;;;;;4964000;28;20185;-88
2021/04/12 13:44:21;;;;;;;4.47;4.30;;;7.70;63.00;;;;;;4971460;28;20181;-86
2021/04/12 13:47:15;;;;;;;4.97;4.55;;;5.00;60.70;;;;;;4979475;28;20178;-89
2021/04/12 13:50:18;;;;;;;4.30;3.90;;;5.20;77.50;;;;;;5098078;23;20287;-89
2021/04/12 13:52:57;;;;;;;6.25;5.72;;;6.80;69.80;;;;;;5012289;28;20193;-87
2021/04/12 13:55:31;;;;;;;5.72;5.53;;;11.30;70.50;;;;;;5007801;28;20203;-90
2021/04/12 13:58:16;;;;;;;5.25;4.95;;;7.90;61.20;;;;;;5006723;28;20544;-87
2021/04/12 14:01:12;;;;;;;3.78;3.55;;;8.40;56.70;;;;;;5064952;22;20271;-87
2021/04/12 14:03:55;;;;;;;2.72;2.72;;;10.30;54.20;;;;;;5048714;28;20178;-88
2021/04/12 14:06:30;;;;;;;2.70;2.50;;;10.40;52.90;;;;;;5051920;28;20227;-89
2021/04/12 14:09:22;;;;;;;2.90;2.83;;;12.00;53.60;;;;;;5103620;22;20465;-87
2021/04/12 14:12:23;;;;;;;2.53;2.22;;;11.60;52.10;;;;;;5032457;28;20216;-88
2021/04/12 14:15:08;;;;;;;4.78;2.92;;;12.30;51.80;;;;;;5031915;28;20200;-89
2021/04/12 14:17:47;;;;;;;2.87;2.67;;;12.50;50.60;;;;;;5031017;28;20175;-89
2021/04/12 14:20:38;;;;;;;2.28;2.28;;;13.00;51.60;;;;;;5033500;28;20474;-89
2021/04/12 14:23:22;;;;;;;2.10;2.10;;;10.20;50.90;;;;;;5028771;28;20533;-88
2021/04/12 14:26:17;;;;;;;2.50;2.50;;;9.40;52.60;;;;;;5019309;28;20627;-87
2021/04/12 14:28:52;;;;;;;2.75;2.72;;;9.30;55.80;;;;;;5016451;28;20196;-89
2021/04/12 14:31:33;;;;;;;3.15;3.05;;;8.80;54.00;;;;;;5017670;28;20212;-87
2021/04/12 14:37:11;;;;;;;3.72;3.35;;;12.00;51.60;;;;;;5302030;22;20487;-86
2021/04/12 14:39:39;;;;;;;2.17;2.17;;;11.70;50.10;;;;;;5008797;28;20185;-86
2021/04/12 14:42:10;;;;;;;2.80;2.70;;;11.10;44.30;;;;;;5005601;28;20448;-89
2021/04/12 14:45:07;;;;;;;2.08;2.08;;;12.80;46.30;;;;;;5007532;28;20417;-87
2021/04/12 14:47:41;;;;;;;2.17;2.07;;;12.90;42.40;;;;;;5007069;28;20174;-87
2021/04/12 14:50:13;;;;;;;2.40;2.30;;;13.30;42.00;;;;;;5009141;28;20546;-87
2021/04/12 14:52:51;;;;;;;2.34;2.34;;;12.30;41.00;;;;;;4924968;28;10000653;-88
2021/04/12 14:55:19;;;;;;;2.77;2.73;;;12.80;43.90;;;;;;4986633;28;20370;-88
2021/04/12 14:57:50;;;;;;;3.70;2.90;;;11.10;41.30;;;;;;4983607;28;20421;-89
2021/04/12 15:00:26;;;;;;;3.05;3.00;;;10.30;40.70;;;;;;4988266;28;20437;-89
2021/04/12 15:02:54;;;;;;;3.03;3.00;;;11.30;42.60;;;;;;4987062;28;20180;-89
2021/04/12 15:05:44;;;;;;;3.13;3.13;;;10.40;44.60;;;;;;4988836;28;20488;-89
2021/04/12 15:08:37;;;;;;;3.10;3.10;;;9.70;45.80;;;;;;4987188;28;20184;-87
2021/04/12 15:11:16;;;;;;;3.88;3.78;;;9.20;45.70;;;;;;4985985;28;20258;-88
2021/04/12 15:14:02;;;;;;;4.07;3.88;;;9.00;46.70;;;;;;5251062;23;20236;-89
2021/04/12 15:16:59;;;;;;;4.53;4.35;;;8.80;47.80;;;;;;5001920;28;20169;-88
2021/04/12 15:19:24;;;;;;;3.30;3.30;;;10.30;49.50;;;;;;4998109;28;20271;-88
2021/04/12 15:21:56;;;;;;;3.70;3.57;;;8.20;48.30;;;;;;5001401;28;20716;-88
2021/04/12 15:24:50;;;;;;;2.40;2.40;;;7.30;48.60;;;;;;4999454;28;20562;-88
2021/04/12 15:27:19;;;;;;;5.85;5.65;;;9.70;48.80;;;;;;4998233;28;20177;-90
2021/04/12 15:30:00;;;;;;;2.47;2.33;;;10.50;47.60;;;;;;4999952;28;20209;-88
2021/04/12 15:32:34;;;;;;;2.10;2.10;;;7.50;45.80;;;;;;5001623;28;20185;-89
2021/04/12 15:35:09;;;;;;;2.20;2.20;;;8.30;46.40;;;;;;4998760;28;20176;-89
2021/04/12 15:37:42;;;;;;;2.67;2.58;;;8.00;45.70;;;;;;4991459;28;20272;-90
2021/04/12 15:40:20;;;;;;;2.45;2.38;;;7.90;44.50;;;;;;4980863;28;20213;-88
2021/04/12 15:42:50;;;;;;;1.88;1.88;;;10.20;45.90;;;;;;4983090;28;20699;-89
2021/04/12 15:45:42;;;;;;;2.47;2.42;;;9.00;43.80;;;;;;4982063;28;20184;-90
2021/04/12 15:48:35;;;;;;;2.20;2.10;;;8.70;44.80;;;;;;4980501;28;20245;-90
2021/04/12 15:51:23;;;;;;;2.50;2.33;;;11.70;44.30;;;;;;4983349;28;20241;-90
2021/04/12 15:54:01;;;;;;;1.45;1.45;;;9.00;43.70;;;;;;4993496;28;20185;-89
2021/04/12 15:56:31;;;;;;;1.70;1.70;;;9.80;44.40;;;;;;4985828;28;20189;-88
2021/04/12 15:59:20;;;;;;;2.42;2.38;;;9.20;42.40;;;;;;4970080;28;20181;-85
2021/04/12 16:02:01;;;;;;;3.38;3.28;;;9.50;42.10;;;;;;4985990;28;20185;-89
2021/04/12 16:04:49;;;;;;;4.00;3.30;;;8.60;43.10;;;;;;5005664;28;20189;-91
2021/04/12 16:07:26;;;;;;;3.10;3.00;;;10.80;44.60;;;;;;5003571;28;20174;-90
2021/04/12 16:10:24;;;;;;;6.28;2.70;;;10.40;45.00;;;;;;5005558;28;20198;-85
2021/04/12 16:13:00;;;;;;;2.20;2.10;;;10.70;45.20;;;;;;5002630;28;20272;-89
2021/04/12 16:15:28;;;;;;;3.15;2.58;;;8.80;45.00;;;;;;4990880;28;20186;-86
2021/04/12 16:18:09;;;;;;;3.22;2.88;;;9.00;45.30;;;;;;4988042;28;20245;-89
2021/04/12 16:20:43;;;;;;;3.08;2.88;;;10.50;45.10;;;;;;4981778;28;20236;-88
2021/04/12 16:23:22;;;;;;;2.00;1.95;;;8.40;45.20;;;;;;4978883;28;20170;-89
2021/04/12 16:25:57;;;;;;;4.65;2.35;;;8.90;43.70;;;;;;4978712;28;20352;-88
2021/04/12 16:28:35;;;;;;;2.20;2.10;;;10.10;44.90;;;;;;4985463;28;20276;-90
2021/04/12 16:31:07;;;;;;;2.13;2.13;;;8.80;44.00;;;;;;5003084;28;20247;-89
2021/04/12 16:33:37;;;;;;;5.65;2.10;;;10.20;44.20;;;;;;4999941;28;20177;-90
2021/04/12 16:36:14;;;;;;;6.55;2.05;;;7.60;45.10;;;;;;5003626;28;20269;-90
2021/04/12 16:38:49;;;;;;;2.40;2.40;;;7.30;44.40;;;;;;5002328;28;20173;-90
2021/04/12 16:41:21;;;;;;;2.33;2.08;;;10.80;45.60;;;;;;5013594;28;20668;-88
2021/04/12 16:44:00;;;;;;;1.85;1.70;;;10.80;45.30;;;;;;5017690;28;20176;-87
2021/04/12 16:47:00;;;;;;;3.50;2.65;;;8.30;42.00;;;;;;5018487;28;20509;-89
2021/04/12 16:49:34;;;;;;;2.30;2.22;;;7.80;42.90;;;;;;5017277;28;20185;-87
2021/04/12 16:52:25;;;;;;;3.40;3.20;;;8.80;44.80;;;;;;5017035;28;20687;-87
2021/04/12 16:55:12;;;;;;;3.58;3.42;;;8.30;43.50;;;;;;5017612;28;20204;-89
2021/04/12 16:57:44;;;;;;;2.92;2.85;;;8.20;44.00;;;;;;5016233;28;20227;-87
2021/04/12 17:00:27;;;;;;;3.50;3.25;;;7.90;43.80;;;;;;5016610;28;20204;-89
2021/04/12 17:03:22;;;;;;;2.88;2.88;;;8.10;44.90;;;;;;5017252;28;20176;-87
2021/04/12 17:06:06;;;;;;;2.73;2.07;;;7.80;44.50;;;;;;4317960;28;10000723;-87
2021/04/12 17:08:43;;;;;;;2.47;2.38;;;7.70;44.30;;;;;;4996508;28;20514;-88
2021/04/12 17:11:14;;;;;;;2.25;2.15;;;7.50;43.90;;;;;;4995935;28;20311;-89
2021/04/12 17:14:10;;;;;;;2.67;2.47;;;7.30;45.00;;;;;;5002406;28;20304;-88
2021/04/12 17:16:54;;;;;;;2.63;2.53;;;7.40;45.40;;;;;;5008303;28;20208;-89
2021/04/12 17:19:33;;;;;;;2.30;2.20;;;7.40;45.50;;;;;;5007744;28;20192;-89
2021/04/12 17:22:14;;;;;;;2.08;1.92;;;7.30;44.70;;;;;;4996262;28;20188;-88
2021/04/12 17:24:46;;;;;;;2.15;2.05;;;8.50;45.40;;;;;;4995118;28;20192;-88
2021/04/12 17:27:25;;;;;;;2.03;2.03;;;8.80;45.20;;;;;;4992769;28;20177;-88
2021/04/12 17:30:29;;;;;;;2.92;2.83;;;7.40;45.00;;;;;;4994948;28;20177;-88
2021/04/12 17:32:59;;;;;;;2.20;2.10;;;7.30;43.20;;;;;;4993593;28;20173;-88
2021/04/12 17:35:37;;;;;;;2.03;2.03;;;6.80;43.50;;;;;;4992450;28;20177;-88
2021/04/12 17:38:17;;;;;;;2.40;2.20;;;7.10;43.90;;;;;;4992163;28;20181;-89
2021/04/12 17:41:02;;;;;;;1.70;1.70;;;6.80;42.70;;;;;;4994658;28;20173;-88
2021/04/12 17:43:31;;;;;;;8.73;2.58;;;7.10;44.00;;;;;;4993844;28;20173;-89
2021/04/12 17:46:32;;;;;;;3.20;2.97;;;6.10;44.50;;;;;;4994616;28;20305;-89
2021/04/12 17:49:41;;;;;;;4.38;4.20;;;7.10;49.70;;;;;;4995435;28;20185;-89
2021/04/12 17:52:21;;;;;;;3.83;3.63;;;6.90;52.20;;;;;;4995350;28;20221;-88
2021/04/12 17:55:10;;;;;;;4.38;4.28;;;6.60;52.30;;;;;;4992852;28;20628;-89
2021/04/12 17:57:45;;;;;;;4.60;4.20;;;6.50;53.00;;;;;;4995644;28;20180;-88
2021/04/12 18:00:21;;;;;;;4.18;4.00;;;7.80;53.90;;;;;;4993401;28;20172;-89
2021/04/12 18:02:49;;;;;;;5.95;4.40;;;6.40;53.10;;;;;;4995045;28;20691;-89
2021/04/12 18:05:32;;;;;;;4.63;4.32;;;9.10;56.30;;;;;;4998114;28;20178;-89
2021/04/12 18:08:16;;;;;;;4.18;3.70;;;6.20;54.60;;;;;;4995921;28;20265;-90
2021/04/12 18:10:44;;;;;;;8.27;4.20;;;7.70;55.70;;;;;;4995528;28;20201;-89
2021/04/12 18:13:17;;;;;;;5.00;4.45;;;7.90;56.30;;;;;;4995740;28;20315;-89
2021/04/12 18:15:48;;;;;;;5.32;4.93;;;5.90;55.10;;;;;;4999716;28;20177;-89
2021/04/12 18:18:27;;;;;;;4.78;4.57;;;5.30;55.20;;;;;;5005498;28;20181;-86
2021/04/12 18:21:13;;;;;;;4.93;4.80;;;5.20;55.50;;;;;;5003119;28;20163;-87
2021/04/12 18:23:42;;;;;;;4.95;4.75;;;5.60;55.50;;;;;;5002574;28;20275;-89
2021/04/12 18:26:27;;;;;;;6.50;6.15;;;5.50;55.50;;;;;;5001300;28;20800;-89
2021/04/12 18:29:04;;;;;;;4.80;4.43;;;5.40;56.10;;;;;;4998349;28;20192;-88
2021/04/12 18:31:48;;;;;;;5.53;5.22;;;5.60;56.70;;;;;;5000015;28;20327;-89
2021/04/12 18:34:35;;;;;;;5.50;5.15;;;5.30;56.90;;;;;;5000831;28;20247;-89
2021/04/12 18:37:06;;;;;;;5.65;5.13;;;5.20;57.10;;;;;;5000056;28;20210;-89
2021/04/12 18:39:40;;;;;;;6.00;5.60;;;5.30;57.10;;;;;;4999446;28;20180;-89
2021/04/12 18:42:42;;;;;;;5.05;4.85;;;5.20;57.20;;;;;;4998959;28;20236;-89
2021/04/12 18:45:25;;;;;;;5.93;5.63;;;5.30;57.30;;;;;;5000150;28;20169;-88
2021/04/12 18:48:07;;;;;;;6.93;6.32;;;6.60;58.30;;;;;;4999939;28;20188;-89
2021/04/12 18:50:49;;;;;;;6.15;5.75;;;5.10;57.70;;;;;;5002042;28;20220;-89
2021/04/12 18:53:22;;;;;;;6.10;5.75;;;5.00;58.00;;;;;;5002131;28;20599;-87
2021/04/12 18:56:01;;;;;;;7.20;6.80;;;5.00;58.00;;;;;;5003731;28;20272;-89
2021/04/12 18:58:33;;;;;;;7.10;6.60;;;5.00;58.40;;;;;;5003684;28;20191;-88
2021/04/12 19:01:19;;;;;;;7.47;6.88;;;4.50;58.60;;;;;;5000408;28;20185;-88
2021/04/12 19:03:47;;;;;;;7.75;7.05;;;4.80;59.10;;;;;;4999255;28;20187;-89
2021/04/12 19:06:34;;;;;;;8.00;7.50;;;6.60;62.00;;;;;;4986432;28;20182;-89
2021/04/12 19:09:34;;;;;;;6.55;6.05;;;4.50;59.60;;;;;;4981964;28;20161;-88
2021/04/12 19:12:11;;;;;;;9.93;8.43;;;4.60;59.80;;;;;;4972433;28;20719;-88
2021/04/12 19:15:01;;;;;;;8.07;7.57;;;4.40;60.00;;;;;;4981004;28;20252;-89
2021/04/12 19:17:48;;;;;;;9.18;8.48;;;4.90;61.20;;;;;;4979685;28;20304;-88
2021/04/12 19:20:33;;;;;;;9.05;8.25;;;4.90;61.20;;;;;;4981992;28;20228;-89
2021/04/12 19:23:08;;;;;;;9.13;8.43;;;4.00;60.10;;;;;;4980102;28;20514;-88
2021/04/12 19:25:48;;;;;;;9.13;8.32;;;4.30;60.60;;;;;;4980581;28;20536;-89
2021/04/12 19:28:23;;;;;;;8.77;8.13;;;4.30;61.10;;;;;;4978908;28;20174;-89
2021/04/12 19:31:07;;;;;;;9.82;9.02;;;3.90;60.80;;;;;;4977572;28;20264;-89
2021/04/12 19:34:03;;;;;;;9.82;9.02;;;4.20;61.20;;;;;;4978376;28;20174;-89
2021/04/12 19:36:55;;;;;;;13.48;8.73;;;4.20;61.90;;;;;;4978784;28;20177;-89
2021/04/12 19:39:48;;;;;;;9.88;9.05;;;4.10;62.40;;;;;;4978612;28;20205;-89
2021/04/12 19:42:37;;;;;;;12.93;10.00;;;4.00;62.20;;;;;;4976172;28;20527;-88
2021/04/12 19:45:31;;;;;;;10.60;9.60;;;4.00;62.80;;;;;;4974938;28;20181;-89
2021/04/12 19:48:07;;;;;;;10.48;9.48;;;4.00;63.70;;;;;;4976932;28;20170;-85
2021/04/12 19:50:44;;;;;;;10.95;9.82;;;4.10;63.30;;;;;;4976318;28;20265;-88
2021/04/12 19:54:14;;;;;;;11.82;10.68;;;4.00;63.30;;;;;;4974388;28;20169;-88
2021/04/12 19:57:04;;;;;;;11.93;10.80;;;3.80;64.10;;;;;;4968157;28;20196;-89
2021/04/12 19:59:57;;;;;;;11.52;10.63;;;3.80;65.10;;;;;;4977215;28;20186;-89
2021/04/12 20:03:00;;;;;;;15.18;11.93;;;3.80;64.40;;;;;;4977119;28;20585;-88
2021/04/12 20:05:39;;;;;;;17.25;11.70;;;3.70;65.00;;;;;;4973093;28;20219;-88
2021/04/12 20:11:50;;;;;;;12.50;11.35;;;3.60;64.80;;;;;;4975645;28;20260;-89
2021/04/12 20:14:31;;;;;;;13.65;12.18;;;3.60;65.40;;;;;;4993591;28;20217;-87
2021/04/12 20:17:22;;;;;;;16.35;12.73;;;3.30;65.20;;;;;;4996864;28;20169;-89
2021/04/12 20:20:01;;;;;;;13.18;11.90;;;3.30;67.10;;;;;;4995432;28;20264;-88
2021/04/12 20:23:01;;;;;;;13.98;12.57;;;3.20;67.10;;;;;;4995175;28;20180;-89
2021/04/12 20:25:30;;;;;;;15.05;13.55;;;3.10;67.10;;;;;;4994379;28;20263;-89
2021/04/12 20:28:33;;;;;;;14.23;12.80;;;3.00;67.30;;;;;;4993624;28;20173;-89
2021/04/12 20:31:21;;;;;;;13.20;11.80;;;3.00;67.50;;;;;;4995193;28;20284;-89
2021/04/12 20:34:18;;;;;;;14.00;12.10;;;3.00;67.70;;;;;;4994790;28;20169;-89
2021/04/12 20:37:06;;;;;;;12.48;11.18;;;3.00;67.20;;;;;;4993173;28;20184;-89
2021/04/12 20:39:43;;;;;;;13.88;12.10;;;2.90;67.40;;;;;;4994438;28;20169;-89
2021/04/12 20:42:39;;;;;;;13.95;12.57;;;2.70;67.80;;;;;;4995396;28;20176;-89
2021/04/12 20:48:28;;;;;;;13.73;12.00;;;2.70;68.60;;;;;;4994330;28;20542;-89
2021/04/12 20:51:08;;;;;;;15.65;13.25;;;2.70;68.40;;;;;;4995307;28;20201;-89